createdAt,value
2017-04-01T00:00:48.734Z,55.10
2017-04-01T00:01:54.373Z,54.20
2017-04-01T00:03:01.032Z,55.20
2017-04-01T00:04:06.589Z,55.40
2017-04-01T00:05:11.416Z,55.40
2017-04-01T00:06:17.757Z,55.40
2017-04-01T00:07:23.452Z,55.70
2017-04-01T00:08:29.020Z,55.50
2017-04-01T00:09:33.764Z,55.40
2017-04-01T00:10:40.033Z,55.40
2017-04-01T00:11:45.633Z,55.60
2017-04-01T00:12:51.304Z,56.00
2017-04-01T00:13:56.109Z,56.00
2017-04-01T00:15:02.409Z,55.30
2017-04-01T00:16:07.068Z,54.80
2017-04-01T00:17:13.460Z,55.90
2017-04-01T00:18:19.041Z,56.10
2017-04-01T00:19:23.949Z,56.10
2017-04-01T00:20:29.426Z,55.60
2017-04-01T00:21:35.021Z,55.20
2017-04-01T00:22:40.641Z,55.40
2017-04-01T00:23:46.288Z,55.20
2017-04-01T00:24:52.626Z,55.40
2017-04-01T00:25:57.513Z,55.40
2017-04-01T00:27:03.757Z,56.20
2017-04-01T00:28:08.600Z,56.20
2017-04-01T00:29:14.143Z,55.80
2017-04-01T00:30:20.421Z,57.00
2017-04-01T00:31:25.120Z,57.00
2017-04-01T00:32:30.741Z,55.80
2017-04-01T00:33:36.305Z,55.60
2017-04-01T00:34:40.985Z,57.10
2017-04-01T00:35:47.389Z,56.00
2017-04-01T00:36:52.177Z,56.30
2017-04-01T00:37:58.472Z,57.20
2017-04-01T00:39:03.581Z,57.20
2017-04-01T00:40:08.793Z,56.40
2017-04-01T00:41:15.186Z,56.60
2017-04-01T00:42:20.872Z,57.20
2017-04-01T00:43:26.040Z,57.20
2017-04-01T00:44:32.225Z,56.70
2017-04-01T00:45:37.806Z,56.90
2017-04-01T00:46:43.417Z,57.30
2017-04-01T00:47:48.204Z,57.20
2017-04-01T00:48:54.369Z,57.50
2017-04-01T00:49:59.196Z,57.50
2017-04-01T00:51:04.844Z,57.90
2017-04-01T00:52:10.489Z,57.60
2017-04-01T00:53:16.658Z,56.50
2017-04-01T00:54:22.241Z,57.30
2017-04-01T00:55:27.808Z,56.30
2017-04-01T00:56:32.659Z,56.30
2017-04-01T00:57:37.420Z,55.70
2017-04-01T00:58:42.924Z,55.80
2017-04-01T00:59:48.397Z,55.70
2017-04-01T01:00:53.977Z,55.80
2017-04-01T01:01:59.642Z,55.60
2017-04-01T01:03:07.041Z,55.80
2017-04-01T01:04:11.857Z,55.80
2017-04-01T01:05:17.453Z,55.50
2017-04-01T01:06:23.557Z,55.70
2017-04-01T01:07:29.174Z,55.90
2017-04-01T01:08:33.904Z,55.80
2017-04-01T01:09:39.453Z,56.10
2017-04-01T01:10:45.097Z,56.20
2017-04-01T01:11:51.394Z,57.20
2017-04-01T01:12:57.145Z,57.10
2017-04-01T01:14:02.125Z,57.10
2017-04-01T01:15:08.393Z,56.70
2017-04-01T01:16:13.972Z,57.30
2017-04-01T01:17:18.761Z,57.30
2017-04-01T01:18:25.128Z,56.40
2017-04-01T01:19:29.984Z,56.30
2017-04-01T01:20:36.131Z,56.90
2017-04-01T01:21:40.798Z,56.30
2017-04-01T01:22:47.201Z,56.30
2017-04-01T01:23:52.693Z,56.30
2017-04-01T01:24:58.265Z,56.40
2017-04-01T01:26:03.261Z,56.30
2017-04-01T01:27:08.835Z,56.30
2017-04-01T01:28:14.470Z,56.30
2017-04-01T01:29:20.033Z,56.80
2017-04-01T01:30:25.569Z,57.20
2017-04-01T01:31:31.026Z,56.80
2017-04-01T01:32:35.932Z,56.80
2017-04-01T01:33:41.442Z,58.60
2017-04-01T01:34:47.032Z,57.00
2017-04-01T01:35:53.384Z,56.80
2017-04-01T01:36:58.957Z,56.70
2017-04-01T01:38:04.798Z,56.60
2017-04-01T01:39:10.300Z,56.20
2017-04-01T01:40:15.833Z,56.80
2017-04-01T01:41:21.460Z,56.80
2017-04-01T01:42:26.293Z,56.80
2017-04-01T01:43:32.652Z,57.30
2017-04-01T01:44:37.440Z,57.20
2017-04-01T01:45:43.836Z,57.10
2017-04-01T01:46:48.700Z,57.10
2017-04-01T01:47:54.145Z,56.90
2017-04-01T01:49:00.433Z,57.90
2017-04-01T01:50:05.233Z,57.90
2017-04-01T01:51:11.672Z,58.30
2017-04-01T01:52:16.462Z,58.30
2017-04-01T01:53:21.952Z,58.80
2017-04-01T01:54:27.386Z,58.50
2017-04-01T01:55:33.782Z,58.40
2017-04-01T01:56:38.493Z,58.40
2017-04-01T01:57:43.214Z,58.10
2017-04-01T01:58:48.761Z,58.30
2017-04-01T01:59:54.364Z,58.00
2017-04-01T02:01:00.748Z,56.90
2017-04-01T02:02:05.629Z,56.90
2017-04-01T02:03:12.833Z,57.70
2017-04-01T02:04:17.656Z,57.60
2017-04-01T02:05:22.353Z,58.20
2017-04-01T02:06:27.992Z,57.20
2017-04-01T02:07:34.385Z,56.80
2017-04-01T02:08:39.230Z,56.80
2017-04-01T02:09:45.508Z,57.40
2017-04-01T02:10:50.466Z,57.20
2017-04-01T02:11:56.958Z,57.90
2017-04-01T02:13:01.836Z,57.90
2017-04-01T02:14:07.749Z,57.00
2017-04-01T02:15:13.225Z,56.90
2017-04-01T02:16:18.836Z,57.10
2017-04-01T02:17:23.557Z,56.80
2017-04-01T02:18:29.052Z,56.80
2017-04-01T02:19:33.961Z,56.80
2017-04-01T02:20:38.664Z,57.10
2017-04-01T02:21:44.136Z,57.00
2017-04-01T02:22:50.480Z,57.10
2017-04-01T02:23:56.106Z,57.10
2017-04-01T02:25:00.862Z,57.10
2017-04-01T02:26:06.356Z,57.10
2017-04-01T02:27:12.701Z,57.30
2017-04-01T02:28:17.472Z,57.30
2017-04-01T02:29:23.836Z,57.90
2017-04-01T02:30:29.660Z,57.70
2017-04-01T02:31:34.485Z,57.70
2017-04-01T02:32:39.909Z,57.90
2017-04-01T02:33:45.397Z,57.80
2017-04-01T02:34:50.942Z,58.00
2017-04-01T02:35:57.369Z,57.90
2017-04-01T02:37:02.945Z,57.90
2017-04-01T02:38:07.725Z,57.90
2017-04-01T02:39:13.279Z,57.90
2017-04-01T02:40:19.554Z,58.00
2017-04-01T02:41:24.288Z,58.00
2017-04-01T02:42:30.606Z,58.10
2017-04-01T02:43:36.188Z,58.00
2017-04-01T02:44:41.789Z,58.00
2017-04-01T02:45:47.293Z,58.00
2017-04-01T02:46:52.898Z,58.50
2017-04-01T02:47:58.381Z,58.20
2017-04-01T02:49:03.342Z,58.20
2017-04-01T02:50:08.841Z,58.30
2017-04-01T02:51:13.519Z,58.50
2017-04-01T02:52:18.281Z,58.50
2017-04-01T02:53:23.737Z,59.60
2017-04-01T02:54:29.336Z,58.30
2017-04-01T02:55:35.705Z,59.10
2017-04-01T02:56:40.516Z,59.20
2017-04-01T02:57:46.861Z,59.30
2017-04-01T02:58:52.343Z,58.90
2017-04-01T02:59:57.384Z,58.90
2017-04-01T03:01:03.777Z,58.60
2017-04-01T03:02:09.248Z,58.90
2017-04-01T03:03:15.871Z,59.10
2017-04-01T03:04:20.766Z,58.90
2017-04-01T03:05:26.205Z,58.90
2017-04-01T03:06:31.862Z,58.60
2017-04-01T03:07:38.249Z,59.40
2017-04-01T03:08:43.164Z,59.40
2017-04-01T03:09:48.709Z,58.80
2017-04-01T03:10:53.400Z,59.60
2017-04-01T03:11:59.721Z,59.10
2017-04-01T03:13:05.172Z,58.30
2017-04-01T03:14:10.777Z,58.80
2017-04-01T03:15:15.646Z,58.70
2017-04-01T03:16:21.197Z,58.50
2017-04-01T03:17:26.695Z,58.90
2017-04-01T03:18:31.596Z,58.90
2017-04-01T03:19:37.144Z,58.50
2017-04-01T03:20:42.672Z,58.30
2017-04-01T03:21:48.257Z,59.00
2017-04-01T03:22:53.781Z,59.60
2017-04-01T03:23:59.321Z,59.50
2017-04-01T03:25:05.012Z,59.20
2017-04-01T03:26:10.610Z,59.70
2017-04-01T03:27:15.577Z,59.50
2017-04-01T03:28:20.256Z,60.20
2017-04-01T03:29:25.872Z,60.30
2017-04-01T03:30:31.521Z,59.20
2017-04-01T03:31:37.119Z,60.30
2017-04-01T03:32:42.645Z,59.70
2017-04-01T03:33:48.245Z,59.70
2017-04-01T03:34:53.096Z,59.20
2017-04-01T03:35:59.541Z,59.30
2017-04-01T03:37:05.177Z,59.40
2017-04-01T03:38:09.878Z,59.30
2017-04-01T03:39:15.640Z,59.80
2017-04-01T03:40:21.189Z,59.60
2017-04-01T03:41:26.814Z,60.10
2017-04-01T03:42:32.405Z,59.50
2017-04-01T03:43:37.837Z,59.50
2017-04-01T03:44:42.768Z,59.40
2017-04-01T03:45:48.997Z,59.80
2017-04-01T03:46:54.614Z,59.60
2017-04-01T03:48:00.244Z,59.30
2017-04-01T03:49:06.769Z,59.10
2017-04-01T03:50:11.501Z,59.00
2017-04-01T03:51:17.000Z,59.40
2017-04-01T03:52:21.766Z,59.00
2017-04-01T03:53:28.005Z,58.80
2017-04-01T03:54:33.602Z,58.50
2017-04-01T03:55:38.530Z,58.50
2017-04-01T03:56:43.169Z,58.50
2017-04-01T03:57:47.836Z,58.40
2017-04-01T03:58:52.562Z,58.60
2017-04-01T03:59:58.918Z,58.40
2017-04-01T04:01:03.583Z,58.40
2017-04-01T04:02:09.045Z,58.30
2017-04-01T04:03:15.432Z,58.20
2017-04-01T04:04:20.285Z,58.60
2017-04-01T04:05:26.695Z,59.10
2017-04-01T04:06:32.243Z,58.80
2017-04-01T04:07:37.049Z,58.70
2017-04-01T04:08:42.649Z,58.40
2017-04-01T04:09:48.245Z,58.70
2017-04-01T04:10:53.655Z,58.20
2017-04-01T04:11:58.556Z,58.20
2017-04-01T04:13:04.149Z,58.70
2017-04-01T04:14:09.648Z,58.70
2017-04-01T04:15:15.296Z,58.90
2017-04-01T04:16:20.814Z,58.90
2017-04-01T04:17:27.001Z,58.80
2017-04-01T04:18:31.636Z,58.70
2017-04-01T04:19:38.081Z,59.00
2017-04-01T04:20:42.871Z,58.90
2017-04-01T04:21:49.222Z,59.30
2017-04-01T04:22:54.189Z,59.20
2017-04-01T04:24:00.465Z,60.10
2017-04-01T04:25:05.401Z,60.10
2017-04-01T04:26:11.629Z,59.20
2017-04-01T04:27:16.463Z,59.10
2017-04-01T04:28:22.073Z,58.60
2017-04-01T04:29:27.653Z,59.00
2017-04-01T04:30:32.418Z,59.50
2017-04-01T04:31:37.153Z,59.10
2017-04-01T04:32:42.756Z,58.90
2017-04-01T04:33:48.262Z,59.30
2017-04-01T04:34:54.514Z,59.30
2017-04-01T04:36:00.257Z,59.30
2017-04-01T04:37:05.804Z,61.40
2017-04-01T04:38:10.644Z,61.40
2017-04-01T04:39:16.317Z,60.20
2017-04-01T04:40:21.808Z,60.40
2017-04-01T04:41:28.058Z,60.00
2017-04-01T04:42:32.837Z,60.00
2017-04-01T04:43:39.190Z,60.20
2017-04-01T04:44:44.029Z,60.20
2017-04-01T04:45:50.437Z,59.00
2017-04-01T04:46:55.156Z,59.00
2017-04-01T04:48:00.741Z,59.00
2017-04-01T04:49:06.322Z,58.90
2017-04-01T04:50:12.541Z,59.50
2017-04-01T04:51:17.336Z,59.40
2017-04-01T04:52:22.984Z,59.00
2017-04-01T04:53:28.649Z,59.00
2017-04-01T04:54:34.254Z,58.60
2017-04-01T04:55:40.701Z,58.60
2017-04-01T04:56:46.349Z,58.80
2017-04-01T04:57:52.156Z,58.90
2017-04-01T04:58:56.772Z,58.80
2017-04-01T05:00:03.182Z,59.00
2017-04-01T05:01:08.823Z,58.90
2017-04-01T05:02:13.834Z,58.80
2017-04-01T05:03:21.150Z,59.40
2017-04-01T05:04:26.697Z,58.90
2017-04-01T05:05:32.305Z,59.70
2017-04-01T05:06:37.163Z,59.70
2017-04-01T05:07:42.789Z,59.80
2017-04-01T05:08:48.470Z,59.90
2017-04-01T05:09:54.641Z,61.10
2017-04-01T05:10:59.514Z,61.00
2017-04-01T05:12:05.158Z,60.20
2017-04-01T05:13:10.740Z,59.90
2017-04-01T05:14:16.356Z,59.60
2017-04-01T05:15:22.136Z,59.90
2017-04-01T05:16:27.796Z,59.90
2017-04-01T05:17:33.188Z,59.90
2017-04-01T05:18:38.813Z,59.70
2017-04-01T05:19:44.325Z,59.80
2017-04-01T05:20:50.573Z,59.90
2017-04-01T05:21:56.183Z,59.80
2017-04-01T05:23:00.968Z,59.70
2017-04-01T05:24:07.334Z,60.00
2017-04-01T05:25:12.162Z,59.80
2017-04-01T05:26:18.407Z,60.00
2017-04-01T05:27:23.181Z,60.00
2017-04-01T05:28:28.808Z,60.10
2017-04-01T05:29:33.533Z,59.70
2017-04-01T05:30:39.110Z,60.10
2017-04-01T05:31:44.661Z,59.60
2017-04-01T05:32:50.261Z,59.50
2017-04-01T05:33:55.789Z,59.80
2017-04-01T05:35:00.457Z,59.60
2017-04-01T05:36:06.968Z,59.70
2017-04-01T05:37:12.436Z,60.30
2017-04-01T05:38:18.020Z,59.90
2017-04-01T05:39:23.635Z,60.40
2017-04-01T05:40:29.173Z,61.10
2017-04-01T05:41:33.864Z,60.80
2017-04-01T05:42:39.422Z,61.20
2017-04-01T05:43:44.203Z,60.30
2017-04-01T05:44:49.649Z,60.50
2017-04-01T05:45:55.121Z,61.30
2017-04-01T05:47:00.739Z,60.50
2017-04-01T05:48:05.492Z,60.40
2017-04-01T05:49:10.989Z,60.10
2017-04-01T05:50:17.382Z,61.90
2017-04-01T05:51:22.985Z,62.00
2017-04-01T05:52:27.787Z,62.00
2017-04-01T05:53:32.661Z,61.80
2017-04-01T05:54:38.968Z,60.60
2017-04-01T05:55:43.833Z,60.60
2017-04-01T05:56:48.489Z,60.60
2017-04-01T05:57:54.016Z,61.30
2017-04-01T05:58:59.584Z,61.30
2017-04-01T06:00:06.190Z,61.00
2017-04-01T06:01:11.654Z,62.00
2017-04-01T06:02:16.460Z,62.00
2017-04-01T06:03:23.569Z,60.70
2017-04-01T06:04:28.382Z,60.20
2017-04-01T06:05:34.680Z,58.80
2017-04-01T06:06:39.524Z,58.70
2017-04-01T06:07:45.936Z,59.90
2017-04-01T06:08:50.833Z,59.90
2017-04-01T06:09:56.413Z,60.40
2017-04-01T06:11:02.002Z,59.80
2017-04-01T06:12:07.477Z,59.20
2017-04-01T06:13:13.001Z,59.80
2017-04-01T06:14:17.805Z,59.70
2017-04-01T06:15:24.212Z,58.50
2017-04-01T06:16:29.685Z,57.80
2017-04-01T06:17:34.669Z,57.80
2017-04-01T06:18:40.193Z,58.10
2017-04-01T06:19:45.800Z,58.60
2017-04-01T06:20:52.121Z,58.40
2017-04-01T06:21:57.697Z,57.00
2017-04-01T06:23:02.453Z,57.00
2017-04-01T06:24:08.029Z,57.80
2017-04-01T06:25:12.732Z,58.60
2017-04-01T06:26:18.207Z,58.10
2017-04-01T06:27:24.580Z,56.90
2017-04-01T06:28:29.357Z,56.90
2017-04-01T06:29:35.021Z,57.50
2017-04-01T06:30:39.928Z,57.30
2017-04-01T06:31:45.373Z,57.30
2017-04-01T06:32:51.763Z,57.90
2017-04-01T06:33:56.432Z,57.90
2017-04-01T06:35:02.040Z,57.50
2017-04-01T06:36:07.666Z,57.70
2017-04-01T06:37:13.249Z,58.30
2017-04-01T06:38:18.217Z,58.20
2017-04-01T06:39:22.913Z,58.60
2017-04-01T06:40:29.249Z,58.90
2017-04-01T06:41:34.945Z,58.90
2017-04-01T06:42:39.788Z,58.90
2017-04-01T06:43:46.041Z,58.70
2017-04-01T06:44:51.612Z,58.60
2017-04-01T06:45:56.391Z,58.50
2017-04-01T06:47:02.841Z,58.60
2017-04-01T06:48:07.656Z,58.60
2017-04-01T06:49:13.093Z,58.60
2017-04-01T06:50:18.652Z,57.90
2017-04-01T06:51:24.073Z,58.10
2017-04-01T06:52:28.970Z,58.10
2017-04-01T06:53:33.581Z,58.30
2017-04-01T06:54:40.045Z,57.60
2017-04-01T06:55:45.415Z,58.10
2017-04-01T06:56:51.176Z,57.70
2017-04-01T06:57:56.069Z,57.70
2017-04-01T06:59:01.664Z,57.80
2017-04-01T07:00:08.034Z,57.50
2017-04-01T07:01:12.743Z,57.50
2017-04-01T07:02:19.410Z,56.90
2017-04-01T07:03:25.104Z,56.80
2017-04-01T07:04:29.865Z,56.80
2017-04-01T07:05:35.493Z,57.00
2017-04-01T07:06:40.989Z,57.20
2017-04-01T07:07:45.678Z,57.30
2017-04-01T07:08:52.105Z,57.30
2017-04-01T07:09:57.620Z,57.40
2017-04-01T07:11:02.421Z,57.40
2017-04-01T07:12:08.028Z,57.20
2017-04-01T07:13:14.348Z,57.90
2017-04-01T07:14:19.977Z,57.90
2017-04-01T07:15:24.988Z,57.80
2017-04-01T07:16:31.194Z,58.20
2017-04-01T07:17:36.089Z,58.10
2017-04-01T07:18:42.404Z,58.50
2017-04-01T07:19:48.212Z,57.60
2017-04-01T07:20:53.001Z,57.60
2017-04-01T07:21:58.474Z,57.60
2017-04-01T07:23:03.182Z,57.10
2017-04-01T07:24:09.497Z,56.80
2017-04-01T07:25:14.480Z,56.80
2017-04-01T07:26:19.873Z,56.60
2017-04-01T07:27:25.277Z,56.80
2017-04-01T07:28:30.845Z,57.10
2017-04-01T07:29:35.545Z,57.40
2017-04-01T07:30:41.155Z,57.80
2017-04-01T07:31:47.515Z,57.40
2017-04-01T07:32:52.349Z,57.40
2017-04-01T07:33:57.884Z,56.90
2017-04-01T07:35:04.273Z,56.80
2017-04-01T07:36:09.839Z,57.30
2017-04-01T07:37:14.469Z,57.20
2017-04-01T07:38:19.940Z,56.90
2017-04-01T07:39:25.453Z,57.40
2017-04-01T07:40:31.789Z,56.90
2017-04-01T07:41:37.608Z,57.20
2017-04-01T07:42:42.355Z,57.20
2017-04-01T07:43:47.922Z,56.40
2017-04-01T07:44:53.540Z,56.10
2017-04-01T07:45:59.165Z,56.30
2017-04-01T07:47:04.813Z,55.80
2017-04-01T07:48:10.931Z,54.90
2017-04-01T07:49:15.833Z,54.90
2017-04-01T07:50:21.333Z,54.80
2017-04-01T07:51:26.942Z,55.10
2017-04-01T07:52:32.388Z,55.50
2017-04-01T07:53:37.976Z,55.80
2017-04-01T07:54:43.572Z,56.20
2017-04-01T07:55:49.136Z,55.80
2017-04-01T07:56:54.730Z,55.00
2017-04-01T07:58:01.081Z,56.10
2017-04-01T07:59:05.740Z,56.10
2017-04-01T08:00:12.109Z,56.40
2017-04-01T08:01:17.654Z,56.80
2017-04-01T08:02:22.589Z,56.90
2017-04-01T08:03:28.865Z,56.40
2017-04-01T08:04:34.433Z,56.00
2017-04-01T08:05:40.121Z,56.50
2017-04-01T08:06:44.993Z,56.40
2017-04-01T08:07:50.635Z,54.80
2017-04-01T08:08:56.965Z,54.20
2017-04-01T08:10:01.613Z,54.10
2017-04-01T08:11:07.252Z,55.80
2017-04-01T08:12:11.932Z,55.50
2017-04-01T08:13:17.462Z,55.20
2017-04-01T08:14:23.164Z,53.40
2017-04-01T08:15:28.693Z,54.00
2017-04-01T08:16:33.997Z,53.30
2017-04-01T08:17:39.523Z,52.60
2017-04-01T08:18:45.109Z,52.00
2017-04-01T08:19:50.544Z,51.20
2017-04-01T08:20:56.101Z,52.50
2017-04-01T08:22:00.805Z,54.70
2017-04-01T08:23:07.021Z,52.70
2017-04-01T08:24:12.756Z,51.40
2017-04-01T08:25:18.333Z,50.70
2017-04-01T08:26:23.185Z,50.40
2017-04-01T08:27:28.748Z,49.70
2017-04-01T08:28:34.369Z,50.50
2017-04-01T08:29:39.965Z,49.70
2017-04-01T08:30:45.676Z,51.10
2017-04-01T08:31:50.432Z,50.10
2017-04-01T08:32:56.043Z,49.30
2017-04-01T08:34:02.376Z,48.90
2017-04-01T08:35:07.178Z,48.90
2017-04-01T08:36:13.429Z,49.60
2017-04-01T08:37:18.320Z,48.70
2017-04-01T08:38:24.847Z,49.80
2017-04-01T08:39:29.673Z,49.70
2017-04-01T08:40:35.269Z,49.70
2017-04-01T08:41:41.677Z,49.60
2017-04-01T08:42:47.209Z,49.80
2017-04-01T08:43:53.032Z,49.30
2017-04-01T08:44:57.873Z,50.00
2017-04-01T08:46:03.223Z,49.90
2017-04-01T08:47:08.880Z,50.10
2017-04-01T08:48:14.345Z,50.80
2017-04-01T08:49:18.988Z,51.40
2017-04-01T08:50:25.212Z,52.40
2017-04-01T08:51:30.829Z,51.40
2017-04-01T08:52:36.641Z,50.40
2017-04-01T08:53:42.153Z,50.10
2017-04-01T08:54:47.119Z,50.20
2017-04-01T08:55:52.696Z,50.30
2017-04-01T08:56:59.098Z,51.20
2017-04-01T08:58:03.848Z,51.20
2017-04-01T08:59:09.548Z,49.80
2017-04-01T09:00:15.810Z,49.00
2017-04-01T09:01:21.265Z,49.00
2017-04-01T09:02:26.052Z,49.00
2017-04-01T09:03:32.585Z,50.20
2017-04-01T09:04:37.387Z,49.90
2017-04-01T09:05:43.686Z,48.90
2017-04-01T09:06:48.437Z,48.90
2017-04-01T09:07:54.049Z,49.00
2017-04-01T09:08:59.565Z,48.80
2017-04-01T09:10:06.017Z,47.50
2017-04-01T09:11:10.708Z,47.40
2017-04-01T09:12:16.305Z,47.40
2017-04-01T09:13:22.685Z,46.40
2017-04-01T09:14:27.587Z,45.90
2017-04-01T09:15:33.065Z,45.90
2017-04-01T09:16:38.528Z,46.10
2017-04-01T09:17:44.980Z,46.70
2017-04-01T09:18:50.516Z,46.60
2017-04-01T09:19:56.081Z,47.10
2017-04-01T09:21:00.753Z,47.00
2017-04-01T09:22:05.501Z,46.80
2017-04-01T09:23:10.973Z,47.40
2017-04-01T09:24:16.449Z,48.40
2017-04-01T09:25:22.138Z,47.40
2017-04-01T09:26:27.533Z,46.90
2017-04-01T09:27:32.165Z,47.30
2017-04-01T09:28:37.802Z,46.80
2017-04-01T09:29:43.405Z,45.70
2017-04-01T09:30:49.680Z,46.00
2017-04-01T09:31:55.409Z,47.10
2017-04-01T09:33:00.813Z,46.60
2017-04-01T09:34:06.633Z,45.70
2017-04-01T09:35:12.240Z,45.30
2017-04-01T09:36:17.830Z,45.30
2017-04-01T09:37:22.606Z,44.90
2017-04-01T09:38:28.885Z,43.70
2017-04-01T09:39:33.892Z,43.20
2017-04-01T09:40:39.488Z,43.40
2017-04-01T09:41:45.098Z,43.10
2017-04-01T09:42:50.648Z,42.80
2017-04-01T09:43:56.912Z,43.60
2017-04-01T09:45:01.713Z,43.50
2017-04-01T09:46:07.273Z,43.30
2017-04-01T09:47:13.757Z,43.40
2017-04-01T09:48:19.265Z,44.10
2017-04-01T09:49:24.185Z,44.00
2017-04-01T09:50:28.889Z,44.30
2017-04-01T09:51:35.285Z,42.80
2017-04-01T09:52:40.354Z,42.80
2017-04-01T09:53:45.716Z,43.70
2017-04-01T09:54:52.077Z,43.40
2017-04-01T09:55:57.808Z,43.50
2017-04-01T09:57:02.733Z,43.40
2017-04-01T09:58:08.937Z,43.60
2017-04-01T09:59:13.680Z,43.50
2017-04-01T10:00:18.368Z,43.80
2017-04-01T10:01:23.073Z,44.30
2017-04-01T10:02:28.660Z,44.30
2017-04-01T10:03:34.204Z,44.60
2017-04-01T10:04:39.808Z,44.10
2017-04-01T10:05:46.052Z,44.00
2017-04-01T10:06:51.717Z,43.70
2017-04-01T10:07:57.421Z,44.50
2017-04-01T10:09:03.925Z,43.90
2017-04-01T10:10:09.505Z,44.20
2017-04-01T10:11:14.386Z,44.10
2017-04-01T10:12:19.861Z,44.80
2017-04-01T10:13:24.848Z,44.70
2017-04-01T10:14:30.949Z,45.10
2017-04-01T10:15:37.124Z,45.10
2017-04-01T10:16:42.358Z,45.10
2017-04-01T10:17:48.610Z,45.20
2017-04-01T10:18:54.208Z,45.30
2017-04-01T10:19:59.005Z,45.30
2017-04-01T10:21:04.532Z,45.10
2017-04-01T10:22:11.065Z,45.20
2017-04-01T10:23:17.477Z,45.30
2017-04-01T10:24:22.952Z,45.20
2017-04-01T10:25:27.869Z,45.20
2017-04-01T10:26:33.467Z,45.10
2017-04-01T10:27:38.120Z,45.00
2017-04-01T10:28:43.576Z,45.20
2017-04-01T10:29:49.852Z,45.60
2017-04-01T10:30:55.561Z,45.80
2017-04-01T10:32:00.367Z,45.90
2017-04-01T10:33:05.845Z,45.20
2017-04-01T10:34:10.857Z,45.00
2017-04-01T10:35:16.394Z,45.10
2017-04-01T10:36:22.666Z,44.40
2017-04-01T10:37:27.553Z,44.30
2017-04-01T10:38:34.012Z,45.10
2017-04-01T10:39:38.701Z,45.00
2017-04-01T10:40:44.264Z,44.10
2017-04-01T10:41:49.909Z,44.20
2017-04-01T10:42:55.560Z,44.00
2017-04-01T10:44:01.180Z,43.50
2017-04-01T10:45:07.404Z,43.50
2017-04-01T10:46:12.116Z,43.50
2017-04-01T10:47:17.733Z,43.50
2017-04-01T10:48:24.177Z,42.90
2017-04-01T10:49:28.850Z,42.90
2017-04-01T10:50:35.098Z,43.40
2017-04-01T10:51:39.796Z,43.40
2017-04-01T10:52:46.004Z,43.60
2017-04-01T10:53:50.668Z,43.40
2017-04-01T10:54:56.181Z,43.40
2017-04-01T10:56:01.133Z,43.30
2017-04-01T10:57:06.697Z,43.10
2017-04-01T10:58:12.383Z,42.10
2017-04-01T10:59:18.044Z,42.70
2017-04-01T11:00:23.558Z,43.00
2017-04-01T11:01:29.708Z,42.20
2017-04-01T11:02:34.625Z,42.20
2017-04-01T11:03:41.052Z,42.20
2017-04-01T11:04:46.774Z,42.70
2017-04-01T11:05:52.273Z,43.00
2017-04-01T11:06:57.037Z,42.30
2017-04-01T11:08:03.468Z,42.70
2017-04-01T11:09:08.352Z,42.70
2017-04-01T11:10:13.817Z,42.70
2017-04-01T11:11:19.485Z,42.40
2017-04-01T11:12:25.769Z,43.40
2017-04-01T11:13:31.518Z,42.10
2017-04-01T11:14:37.232Z,42.10
2017-04-01T11:15:42.761Z,42.70
2017-04-01T11:16:47.570Z,42.60
2017-04-01T11:17:53.019Z,42.80
2017-04-01T11:18:59.196Z,42.60
2017-04-01T11:20:04.169Z,42.50
2017-04-01T11:21:09.672Z,42.50
2017-04-01T11:22:15.412Z,42.70
2017-04-01T11:23:20.226Z,42.70
2017-04-01T11:24:25.768Z,42.80
2017-04-01T11:25:31.358Z,42.00
2017-04-01T11:26:37.780Z,40.50
2017-04-01T11:27:42.692Z,40.50
2017-04-01T11:28:48.298Z,40.30
2017-04-01T11:29:53.949Z,40.60
2017-04-01T11:30:59.500Z,40.10
2017-04-01T11:32:04.446Z,40.10
2017-04-01T11:33:09.907Z,40.30
2017-04-01T11:34:15.352Z,40.10
2017-04-01T11:35:21.766Z,39.50
2017-04-01T11:36:27.320Z,40.50
2017-04-01T11:37:32.953Z,39.80
2017-04-01T11:38:37.882Z,39.70
2017-04-01T11:39:43.452Z,39.60
2017-04-01T11:40:49.108Z,39.60
2017-04-01T11:41:54.828Z,40.20
2017-04-01T11:43:01.246Z,39.20
2017-04-01T11:44:06.099Z,39.10
2017-04-01T11:45:12.485Z,40.90
2017-04-01T11:46:17.411Z,40.90
2017-04-01T11:47:23.217Z,40.30
2017-04-01T11:48:29.168Z,41.60
2017-04-01T11:49:34.047Z,41.20
2017-04-01T11:50:40.586Z,39.80
2017-04-01T11:51:45.389Z,39.80
2017-04-01T11:52:50.924Z,40.00
2017-04-01T11:53:56.636Z,40.00
2017-04-01T11:55:02.288Z,40.30
2017-04-01T11:56:07.725Z,40.50
2017-04-01T11:57:12.573Z,40.60
2017-04-01T11:58:19.100Z,40.80
2017-04-01T11:59:23.806Z,40.70
2017-04-01T12:00:29.418Z,41.20
2017-04-01T12:01:34.830Z,40.80
2017-04-01T12:02:40.401Z,41.00
2017-04-01T12:03:46.165Z,41.10
2017-04-01T12:04:51.658Z,41.10
2017-04-01T12:05:56.604Z,41.10
2017-04-01T12:07:02.133Z,41.00
2017-04-01T12:08:08.505Z,41.10
2017-04-01T12:09:14.162Z,41.10
2017-04-01T12:10:19.617Z,41.70
2017-04-01T12:11:25.265Z,41.50
2017-04-01T12:12:30.913Z,41.80
2017-04-01T12:13:36.494Z,41.80
2017-04-01T12:14:41.182Z,41.70
2017-04-01T12:15:46.796Z,42.00
2017-04-01T12:16:52.418Z,42.10
2017-04-01T12:17:57.116Z,41.70
2017-04-01T12:19:02.716Z,42.00
2017-04-01T12:20:07.716Z,41.20
2017-04-01T12:21:13.961Z,41.70
2017-04-01T12:22:19.628Z,41.80
2017-04-01T12:23:25.230Z,42.10
2017-04-01T12:24:30.104Z,42.10
2017-04-01T12:25:35.704Z,41.90
2017-04-01T12:26:41.344Z,42.00
2017-04-01T12:27:47.044Z,42.10
2017-04-01T12:28:52.684Z,42.40
2017-04-01T12:29:58.939Z,42.60
2017-04-01T12:31:04.761Z,42.30
2017-04-01T12:32:09.556Z,42.20
2017-04-01T12:33:15.269Z,41.80
2017-04-01T12:34:19.937Z,41.30
2017-04-01T12:35:25.590Z,41.00
2017-04-01T12:36:32.842Z,42.10
2017-04-01T12:37:37.669Z,42.10
2017-04-01T12:38:43.164Z,41.80
2017-04-01T12:39:48.689Z,41.30
2017-04-01T12:40:54.331Z,41.70
2017-04-01T12:42:00.738Z,41.20
2017-04-01T12:43:06.353Z,41.70
2017-04-01T12:44:11.044Z,41.70
2017-04-01T12:45:15.752Z,41.80
2017-04-01T12:46:22.183Z,42.00
2017-04-01T12:47:27.797Z,41.40
2017-04-01T12:48:33.255Z,42.10
2017-04-01T12:49:38.265Z,42.10
2017-04-01T12:50:43.825Z,44.00
2017-04-01T12:51:50.146Z,43.50
2017-04-01T12:52:55.844Z,40.70
2017-04-01T12:54:01.283Z,40.40
2017-04-01T12:55:06.128Z,40.30
2017-04-01T12:56:11.705Z,40.90
2017-04-01T12:57:17.245Z,41.20
2017-04-01T12:58:23.023Z,41.60
2017-04-01T12:59:28.489Z,42.70
2017-04-01T13:00:34.890Z,41.70
2017-04-01T13:01:39.629Z,41.60
2017-04-01T13:02:45.876Z,41.30
2017-04-01T13:03:52.628Z,41.40
2017-04-01T13:04:58.204Z,41.00
2017-04-01T13:06:03.089Z,41.00
2017-04-01T13:07:09.380Z,41.10
2017-04-01T13:08:14.201Z,41.10
2017-04-01T13:09:20.824Z,40.70
2017-04-01T13:10:26.453Z,40.30
2017-04-01T13:11:31.917Z,40.90
2017-04-01T13:12:36.896Z,40.80
2017-04-01T13:13:42.574Z,40.40
2017-04-01T13:14:47.303Z,40.40
2017-04-01T13:15:52.909Z,40.40
2017-04-01T13:16:59.169Z,40.50
2017-04-01T13:18:04.021Z,40.50
2017-04-01T13:19:09.665Z,40.20
2017-04-01T13:20:16.097Z,40.60
2017-04-01T13:21:20.954Z,40.60
2017-04-01T13:22:26.587Z,40.60
2017-04-01T13:23:32.162Z,40.80
2017-04-01T13:24:38.525Z,40.60
2017-04-01T13:25:43.406Z,40.70
2017-04-01T13:26:49.760Z,40.90
2017-04-01T13:27:54.576Z,40.80
2017-04-01T13:29:00.837Z,40.70
2017-04-01T13:30:05.677Z,40.70
2017-04-01T13:31:11.186Z,40.70
2017-04-01T13:32:16.585Z,40.60
2017-04-01T13:33:22.193Z,40.60
2017-04-01T13:34:27.313Z,40.80
2017-04-01T13:35:32.681Z,40.50
2017-04-01T13:36:37.569Z,40.60
2017-04-01T13:37:43.661Z,40.30
2017-04-01T13:38:48.436Z,40.20
2017-04-01T13:39:54.057Z,40.20
2017-04-01T13:41:00.411Z,40.30
2017-04-01T13:42:05.213Z,40.30
2017-04-01T13:43:11.321Z,40.10
2017-04-01T13:44:16.157Z,40.10
2017-04-01T13:45:22.416Z,39.60
2017-04-01T13:46:28.064Z,40.20
2017-04-01T13:47:33.840Z,40.30
2017-04-01T13:48:38.657Z,40.30
2017-04-01T13:49:44.943Z,40.80
2017-04-01T13:50:50.725Z,40.00
2017-04-01T13:51:55.605Z,40.10
2017-04-01T13:53:01.197Z,39.30
2017-04-01T13:54:07.612Z,38.00
2017-04-01T13:55:13.397Z,38.10
2017-04-01T13:56:18.446Z,38.10
2017-04-01T13:57:23.982Z,38.60
2017-04-01T13:58:29.694Z,38.30
2017-04-01T13:59:35.244Z,37.60
2017-04-01T14:00:39.951Z,37.60
2017-04-01T14:01:46.276Z,38.20
2017-04-01T14:02:51.860Z,38.40
2017-04-01T14:03:58.730Z,38.40